createdAt,value
2023-02-27T00:01:08.541Z,1.70
2023-02-27T00:03:38.086Z,1.90
2023-02-27T00:06:07.790Z,1.80
2023-02-27T00:08:37.719Z,1.70
2023-02-27T00:11:07.261Z,1.80
2023-02-27T00:13:37.262Z,1.80
2023-02-27T00:16:08.002Z,1.70
2023-02-27T00:18:37.592Z,1.90
2023-02-27T00:21:07.596Z,1.80
2023-02-27T00:23:37.090Z,1.80
2023-02-27T00:26:07.025Z,2.00
2023-02-27T00:28:36.449Z,2.00
2023-02-27T00:31:06.274Z,2.10
2023-02-27T00:33:36.165Z,2.10
2023-02-27T00:36:05.815Z,2.00
2023-02-27T00:38:37.042Z,2.00
2023-02-27T00:41:06.623Z,2.10
2023-02-27T00:43:36.046Z,2.00
2023-02-27T00:46:05.873Z,2.10
2023-02-27T00:48:35.359Z,2.10
2023-02-27T00:51:05.315Z,2.10
2023-02-27T00:53:35.058Z,2.10
2023-02-27T00:56:04.612Z,2.10
2023-02-27T00:58:34.066Z,2.20
2023-02-27T01:01:03.766Z,2.10
2023-02-27T01:03:34.357Z,2.10
2023-02-27T01:06:04.173Z,2.30
2023-02-27T01:08:33.665Z,2.40
2023-02-27T01:11:05.003Z,2.30
2023-02-27T01:13:34.663Z,2.20
2023-02-27T01:16:04.184Z,2.20
2023-02-27T01:18:33.992Z,2.30
2023-02-27T01:21:03.577Z,2.20
2023-02-27T01:23:33.051Z,2.00
2023-02-27T01:26:03.538Z,2.00
2023-02-27T01:28:32.952Z,2.00
2023-02-27T01:31:02.434Z,2.10
2023-02-27T01:33:34.125Z,2.00
2023-02-27T01:36:04.026Z,2.10
2023-02-27T01:38:33.453Z,1.90
2023-02-27T01:41:05.169Z,2.00
2023-02-27T01:43:35.984Z,2.00
2023-02-27T01:46:05.902Z,2.10
2023-02-27T01:48:40.287Z,1.90
2023-02-27T01:51:12.788Z,2.00
2023-02-27T01:53:44.712Z,2.00
2023-02-27T01:56:23.313Z,1.80
2023-02-27T01:58:56.606Z,1.90
2023-02-27T02:01:30.167Z,1.80
2023-02-27T02:04:17.160Z,1.90
2023-02-27T02:06:50.435Z,1.80
2023-02-27T02:09:22.652Z,1.70
2023-02-27T02:11:53.014Z,1.60
2023-02-27T02:14:22.655Z,1.80
2023-02-27T02:17:17.568Z,1.70
2023-02-27T02:20:11.321Z,1.70
2023-02-27T02:23:11.409Z,1.70
2023-02-27T02:26:09.600Z,1.60
2023-02-27T02:29:05.862Z,1.60
2023-02-27T02:32:04.327Z,1.70
2023-02-27T02:34:57.421Z,1.70
2023-02-27T02:38:05.128Z,1.60
2023-02-27T02:40:51.888Z,1.60
2023-02-27T02:43:24.615Z,1.60
2023-02-27T02:45:57.750Z,1.50
2023-02-27T02:48:40.131Z,1.60
2023-02-27T02:51:30.730Z,1.60
2023-02-27T02:54:03.516Z,1.50
2023-02-27T02:56:38.844Z,1.70
2023-02-27T02:59:11.584Z,1.60
2023-02-27T03:01:47.548Z,1.60
2023-02-27T03:04:27.521Z,1.70
2023-02-27T03:07:03.028Z,1.60
2023-02-27T03:09:41.349Z,1.60
2023-02-27T03:12:14.080Z,1.60
2023-02-27T03:14:55.304Z,1.60
2023-02-27T03:17:28.371Z,1.70
2023-02-27T03:20:04.555Z,1.60
2023-02-27T03:22:37.110Z,1.70
2023-02-27T03:25:46.487Z,1.60
2023-02-27T03:28:19.451Z,1.50
2023-02-27T03:30:54.896Z,1.40
2023-02-27T03:33:27.663Z,1.40
2023-02-27T03:36:03.368Z,1.60
2023-02-27T03:38:35.861Z,1.70
2023-02-27T03:41:25.731Z,1.60
2023-02-27T03:44:03.352Z,1.50
2023-02-27T03:46:33.359Z,1.70
2023-02-27T03:49:03.348Z,1.60
2023-02-27T03:51:33.800Z,1.60
2023-02-27T03:54:06.370Z,1.60
2023-02-27T03:56:39.950Z,1.50
2023-02-27T03:59:09.680Z,1.50
2023-02-27T04:01:41.118Z,1.50
2023-02-27T04:04:16.452Z,1.60
2023-02-27T04:07:09.730Z,1.70
2023-02-27T04:10:08.066Z,1.60
2023-02-27T04:12:49.765Z,1.50
2023-02-27T04:15:25.194Z,1.50
2023-02-27T04:18:24.862Z,1.60
2023-02-27T04:21:00.163Z,1.50
2023-02-27T04:23:42.195Z,1.50
2023-02-27T04:26:32.006Z,1.20
2023-02-27T04:29:10.195Z,1.30
2023-02-27T04:31:59.199Z,1.40
2023-02-27T04:34:46.747Z,1.50
2023-02-27T04:37:21.966Z,1.20
2023-02-27T04:40:00.768Z,1.20
2023-02-27T04:42:36.369Z,1.30
2023-02-27T04:45:09.202Z,1.30
2023-02-27T04:47:41.863Z,1.30
2023-02-27T04:50:14.536Z,1.40
2023-02-27T04:52:49.763Z,1.30
2023-02-27T04:55:25.297Z,1.40
2023-02-27T04:58:06.716Z,1.50
2023-02-27T05:00:39.177Z,1.40
2023-02-27T05:03:11.688Z,1.40
2023-02-27T05:05:44.163Z,1.30
2023-02-27T05:08:19.586Z,1.20
2023-02-27T05:10:52.173Z,1.10
2023-02-27T05:13:33.350Z,1.20
2023-02-27T05:16:08.785Z,1.10
2023-02-27T05:18:38.689Z,1.10
2023-02-27T05:21:29.733Z,1.30
2023-02-27T05:24:11.212Z,1.30
2023-02-27T05:27:02.282Z,1.40
2023-02-27T05:29:43.680Z,1.20
2023-02-27T05:32:21.864Z,1.20
2023-02-27T05:34:57.507Z,1.30
2023-02-27T05:37:32.791Z,1.20
2023-02-27T05:40:08.479Z,1.30
2023-02-27T05:42:41.245Z,1.20
2023-02-27T05:45:17.734Z,1.20
2023-02-27T05:47:50.957Z,1.20
2023-02-27T05:50:21.143Z,1.10
2023-02-27T05:52:52.557Z,1.20
2023-02-27T05:55:30.343Z,1.00
2023-02-27T05:58:19.370Z,0.90
2023-02-27T06:01:07.300Z,0.80
2023-02-27T06:03:39.283Z,0.80
2023-02-27T06:06:11.792Z,1.00
2023-02-27T06:08:41.375Z,0.90
2023-02-27T06:11:10.992Z,0.80
2023-02-27T06:13:42.185Z,0.80
2023-02-27T06:16:14.754Z,0.70
2023-02-27T06:18:45.023Z,0.70
2023-02-27T06:21:15.414Z,0.80
2023-02-27T06:23:44.873Z,0.80
2023-02-27T06:26:14.409Z,0.70
2023-02-27T06:28:43.897Z,0.80
2023-02-27T06:31:14.234Z,0.70
2023-02-27T06:33:45.414Z,0.70
2023-02-27T06:36:15.310Z,0.80
2023-02-27T06:38:44.930Z,0.60
2023-02-27T06:41:15.050Z,0.70
2023-02-27T06:43:44.629Z,0.70
2023-02-27T06:46:14.155Z,0.70
2023-02-27T06:48:43.833Z,0.60
2023-02-27T06:51:13.445Z,0.70
2023-02-27T06:53:43.183Z,0.70
2023-02-27T06:56:12.742Z,0.60
2023-02-27T06:58:42.414Z,0.60
2023-02-27T07:01:13.542Z,0.70
2023-02-27T07:03:42.985Z,0.60
2023-02-27T07:06:13.812Z,0.60
2023-02-27T07:09:01.892Z,0.70
2023-02-27T07:11:14.494Z,0.60
2023-02-27T07:13:43.910Z,0.60
2023-02-27T07:16:13.369Z,0.70
2023-02-27T07:18:43.498Z,0.70
2023-02-27T07:21:12.977Z,0.80
2023-02-27T07:23:45.668Z,0.80
2023-02-27T07:26:15.103Z,0.90
2023-02-27T07:28:44.558Z,0.80
2023-02-27T07:31:15.248Z,0.80
2023-02-27T07:33:44.797Z,0.80
2023-02-27T07:36:14.288Z,0.80
2023-02-27T07:38:44.117Z,0.80
2023-02-27T07:41:29.492Z,0.70
2023-02-27T07:43:45.388Z,0.70
2023-02-27T07:46:15.009Z,0.80
2023-02-27T07:48:44.396Z,0.80
2023-02-27T07:51:14.026Z,0.80
2023-02-27T07:53:43.459Z,0.80
2023-02-27T07:56:14.124Z,0.80
2023-02-27T07:58:43.746Z,0.80
2023-02-27T08:01:13.404Z,0.90
2023-02-27T08:03:43.671Z,1.00
2023-02-27T08:06:13.156Z,1.00
2023-02-27T08:08:42.762Z,1.00
2023-02-27T08:11:12.793Z,1.00
2023-02-27T08:13:59.627Z,1.10
2023-02-27T08:16:13.722Z,1.10
2023-02-27T08:18:43.281Z,1.10
2023-02-27T08:21:13.317Z,1.00
2023-02-27T08:23:42.791Z,1.20
2023-02-27T08:26:12.269Z,1.30
2023-02-27T08:28:42.989Z,1.30
2023-02-27T08:31:12.535Z,1.20
2023-02-27T08:33:42.015Z,1.20
2023-02-27T08:36:11.920Z,1.20
2023-02-27T08:38:41.471Z,1.20
2023-02-27T08:41:11.088Z,1.30
2023-02-27T08:43:43.246Z,1.40
2023-02-27T08:46:12.746Z,1.40
2023-02-27T08:48:42.803Z,1.40
2023-02-27T08:51:12.695Z,1.40
2023-02-27T08:53:42.833Z,1.40
2023-02-27T08:56:12.358Z,1.40
2023-02-27T08:58:42.192Z,1.50
2023-02-27T09:01:13.774Z,1.60
2023-02-27T09:03:43.261Z,1.60
2023-02-27T09:06:12.809Z,1.50
2023-02-27T09:08:42.707Z,1.30
2023-02-27T09:11:12.197Z,1.30
2023-02-27T09:13:41.696Z,1.40
2023-02-27T09:16:11.652Z,1.50
2023-02-27T09:18:41.150Z,1.60
2023-02-27T09:21:10.602Z,1.60
2023-02-27T09:23:41.160Z,1.80
2023-02-27T09:26:11.131Z,1.70
2023-02-27T09:28:40.635Z,1.70
2023-02-27T09:31:11.442Z,1.80
2023-02-27T09:33:40.964Z,1.90
2023-02-27T09:36:11.177Z,1.90
2023-02-27T09:38:41.530Z,1.80
2023-02-27T09:41:27.337Z,2.00
2023-02-27T09:43:57.479Z,2.00
2023-02-27T09:46:27.746Z,2.00
2023-02-27T09:49:00.811Z,2.00
2023-02-27T09:51:31.226Z,2.10
2023-02-27T09:54:02.798Z,2.10
2023-02-27T09:56:41.329Z,2.00
2023-02-27T09:59:26.007Z,2.00
2023-02-27T10:02:09.708Z,2.00
2023-02-27T10:05:00.717Z,2.00
2023-02-27T10:07:39.702Z,2.00
2023-02-27T10:10:30.546Z,2.00
2023-02-27T10:13:09.361Z,2.00
2023-02-27T10:15:53.008Z,2.10
2023-02-27T10:18:30.855Z,2.10
2023-02-27T10:21:02.837Z,2.10
2023-02-27T10:23:53.835Z,2.10
2023-02-27T10:26:30.140Z,2.20
2023-02-27T10:29:02.475Z,2.40
2023-02-27T10:31:36.220Z,2.50
2023-02-27T10:34:06.460Z,2.40
2023-02-27T10:36:37.346Z,2.50
2023-02-27T10:39:10.159Z,2.60
2023-02-27T10:41:41.425Z,2.90
2023-02-27T10:44:14.654Z,2.90
2023-02-27T10:46:44.976Z,3.10
2023-02-27T10:49:19.171Z,3.30
2023-02-27T10:51:52.211Z,3.00
2023-02-27T10:54:24.419Z,3.00
2023-02-27T10:56:56.904Z,3.10
2023-02-27T10:59:32.577Z,3.10
2023-02-27T11:02:22.283Z,3.10
2023-02-27T11:04:57.289Z,3.20
2023-02-27T11:07:32.796Z,3.30
2023-02-27T11:10:07.349Z,3.20
2023-02-27T11:12:36.988Z,3.20
2023-02-27T11:15:26.128Z,3.20
2023-02-27T11:17:55.646Z,3.30
2023-02-27T11:20:37.203Z,3.40
2023-02-27T11:23:09.953Z,3.40
2023-02-27T11:25:39.488Z,3.10
2023-02-27T11:28:28.550Z,3.10
2023-02-27T11:31:04.053Z,2.90
2023-02-27T11:33:42.730Z,3.10
2023-02-27T11:36:12.389Z,3.10
2023-02-27T11:38:45.026Z,3.10
2023-02-27T11:41:14.989Z,3.00
2023-02-27T11:43:53.593Z,3.10
2023-02-27T11:46:45.881Z,3.20
2023-02-27T11:49:08.651Z,3.20
2023-02-27T11:51:58.534Z,3.20
2023-02-27T11:54:37.185Z,3.20
2023-02-27T11:57:30.866Z,3.40
2023-02-27T12:00:09.108Z,3.40
2023-02-27T12:02:47.533Z,3.30
2023-02-27T12:05:37.258Z,3.20
2023-02-27T12:08:15.719Z,3.30
2023-02-27T12:11:13.017Z,3.20
2023-02-27T12:13:36.856Z,3.50
2023-02-27T12:16:42.983Z,3.60
2023-02-27T12:19:16.090Z,3.50
2023-02-27T12:21:49.693Z,3.30
2023-02-27T12:24:28.845Z,3.20
2023-02-27T12:27:04.207Z,3.00
2023-02-27T12:29:39.580Z,3.10
2023-02-27T12:32:28.226Z,3.10
2023-02-27T12:35:19.280Z,3.10
2023-02-27T12:37:49.443Z,3.20
2023-02-27T12:40:23.770Z,3.10
2023-02-27T12:43:15.238Z,3.00
2023-02-27T12:45:56.882Z,3.00
2023-02-27T12:48:46.548Z,3.10
2023-02-27T12:51:34.882Z,3.20
2023-02-27T12:54:10.365Z,3.20
2023-02-27T12:57:00.934Z,3.10
2023-02-27T12:59:56.918Z,3.10
2023-02-27T13:02:47.615Z,3.10
2023-02-27T13:05:32.555Z,3.20
2023-02-27T13:08:25.977Z,3.10
2023-02-27T13:10:58.951Z,3.10
2023-02-27T13:13:33.696Z,3.10
2023-02-27T13:16:09.113Z,3.20
2023-02-27T13:18:41.599Z,3.30
2023-02-27T13:21:14.210Z,3.30
2023-02-27T13:23:58.611Z,3.20
2023-02-27T13:26:39.634Z,3.20
2023-02-27T13:29:15.761Z,3.40
2023-02-27T13:32:00.493Z,3.50
2023-02-27T13:34:33.274Z,3.70
2023-02-27T13:37:04.015Z,3.80
2023-02-27T13:39:52.864Z,4.00
2023-02-27T13:42:32.739Z,3.90
2023-02-27T13:45:07.333Z,3.70
2023-02-27T13:47:42.597Z,3.70
2023-02-27T13:50:24.050Z,3.60
2023-02-27T13:52:54.772Z,3.60
2023-02-27T13:55:34.817Z,3.70
2023-02-27T13:58:06.940Z,3.70
2023-02-27T14:00:38.193Z,3.50
2023-02-27T14:03:19.929Z,3.50
2023-02-27T14:05:52.037Z,3.50
2023-02-27T14:08:27.687Z,3.30
2023-02-27T14:11:12.052Z,3.30
2023-02-27T14:13:57.634Z,3.40
2023-02-27T14:16:44.577Z,3.40
2023-02-27T14:19:22.293Z,3.40
2023-02-27T14:22:02.409Z,3.50
2023-02-27T14:24:49.653Z,3.50
2023-02-27T14:27:22.306Z,3.90
2023-02-27T14:29:55.184Z,4.10
2023-02-27T14:32:25.515Z,4.20
2023-02-27T14:34:56.946Z,4.20
2023-02-27T14:37:28.532Z,4.30
2023-02-27T14:40:04.546Z,4.40
2023-02-27T14:42:43.948Z,4.60
2023-02-27T14:45:21.020Z,4.80
2023-02-27T14:47:53.920Z,4.60
2023-02-27T14:50:37.213Z,4.40
2023-02-27T14:53:06.318Z,4.30
2023-02-27T14:55:38.089Z,4.40
2023-02-27T14:58:16.372Z,4.50
2023-02-27T15:00:52.164Z,4.50
2023-02-27T15:03:27.625Z,4.30
2023-02-27T15:06:01.337Z,4.20
2023-02-27T15:08:33.815Z,4.30
2023-02-27T15:11:04.257Z,4.20
2023-02-27T15:13:36.195Z,4.30
2023-02-27T15:16:32.148Z,4.40
2023-02-27T15:19:05.080Z,4.30
2023-02-27T15:21:37.405Z,4.30
2023-02-27T15:24:09.434Z,4.40
2023-02-27T15:26:41.623Z,4.30
2023-02-27T15:29:14.113Z,4.20
2023-02-27T15:31:47.388Z,4.10
2023-02-27T15:34:20.501Z,4.10
2023-02-27T15:36:53.985Z,3.90
2023-02-27T15:39:26.699Z,4.00
2023-02-27T15:41:59.275Z,4.00
2023-02-27T15:44:34.532Z,3.90
2023-02-27T15:47:05.440Z,3.80
2023-02-27T15:49:36.187Z,3.70
2023-02-27T15:52:14.762Z,3.60
2023-02-27T15:55:02.354Z,3.60
2023-02-27T15:57:33.595Z,3.60
2023-02-27T16:00:04.914Z,3.50
2023-02-27T16:02:42.833Z,3.40
2023-02-27T16:05:21.121Z,3.40
2023-02-27T16:07:52.487Z,3.40
2023-02-27T16:10:45.850Z,3.40
2023-02-27T16:13:21.113Z,3.40
2023-02-27T16:16:04.794Z,3.40
2023-02-27T16:18:49.202Z,3.40
2023-02-27T16:21:21.189Z,3.40
2023-02-27T16:23:51.517Z,3.20
2023-02-27T16:26:38.228Z,3.20
2023-02-27T16:29:23.391Z,3.20
2023-02-27T16:31:55.546Z,3.10
2023-02-27T16:34:46.536Z,3.20
2023-02-27T16:37:15.587Z,3.10
2023-02-27T16:39:45.133Z,3.10
2023-02-27T16:42:14.641Z,3.10
2023-02-27T16:44:44.130Z,3.10
2023-02-27T16:47:13.673Z,3.20
2023-02-27T16:49:44.590Z,3.20
2023-02-27T16:52:15.268Z,3.10
2023-02-27T16:54:44.855Z,3.10
2023-02-27T16:57:14.300Z,3.10
2023-02-27T16:59:44.828Z,3.00
2023-02-27T17:02:17.205Z,3.00
2023-02-27T17:04:48.277Z,3.00
2023-02-27T17:07:19.313Z,3.00
2023-02-27T17:09:49.477Z,3.00
2023-02-27T17:12:18.971Z,3.00
2023-02-27T17:14:48.411Z,2.90
2023-02-27T17:17:18.306Z,2.90
2023-02-27T17:19:47.888Z,2.90
2023-02-27T17:22:19.214Z,3.00
2023-02-27T17:24:48.638Z,3.00
2023-02-27T17:27:18.066Z,3.00
2023-02-27T17:29:47.795Z,2.90
2023-02-27T17:32:17.247Z,2.90
2023-02-27T17:34:46.693Z,2.90
2023-02-27T17:37:16.500Z,2.90
2023-02-27T17:39:46.003Z,2.90
2023-02-27T17:42:17.693Z,2.90
2023-02-27T17:44:47.757Z,2.80
2023-02-27T17:47:17.473Z,2.80
2023-02-27T17:49:48.062Z,2.80
2023-02-27T17:52:17.566Z,2.80
2023-02-27T17:54:47.433Z,2.80
2023-02-27T17:57:17.492Z,2.80
2023-02-27T17:59:46.987Z,2.80
2023-02-27T18:02:17.112Z,2.80
2023-02-27T18:04:47.717Z,2.80
2023-02-27T18:07:17.151Z,2.80
2023-02-27T18:09:46.659Z,2.80
2023-02-27T18:12:16.504Z,2.80
2023-02-27T18:14:45.930Z,2.80
2023-02-27T18:17:15.426Z,2.70
2023-02-27T18:19:45.238Z,2.80
2023-02-27T18:22:19.052Z,2.70
2023-02-27T18:24:49.511Z,2.70
2023-02-27T18:27:19.043Z,2.70
2023-02-27T18:29:49.383Z,2.70
2023-02-27T18:32:18.927Z,2.60
2023-02-27T18:34:48.391Z,2.60
2023-02-27T18:37:17.915Z,2.70
2023-02-27T18:39:47.860Z,2.60
2023-02-27T18:42:17.499Z,2.60
2023-02-27T18:44:48.504Z,2.70
2023-02-27T18:47:17.939Z,2.60
2023-02-27T18:49:47.365Z,2.60
2023-02-27T18:52:17.500Z,2.60
2023-02-27T18:54:46.930Z,2.60
2023-02-27T18:57:16.572Z,2.60
2023-02-27T18:59:47.838Z,2.60
2023-02-27T19:02:22.454Z,2.60
2023-02-27T19:04:51.966Z,2.60
2023-02-27T19:07:23.376Z,2.60
2023-02-27T19:09:53.394Z,2.60
2023-02-27T19:12:22.951Z,2.60
2023-02-27T19:14:52.554Z,2.50
2023-02-27T19:17:22.361Z,2.50
2023-02-27T19:19:52.478Z,2.50
2023-02-27T19:22:22.287Z,2.60
2023-02-27T19:24:51.898Z,2.50
2023-02-27T19:27:22.869Z,2.50
2023-02-27T19:29:52.544Z,2.50
2023-02-27T19:32:22.855Z,2.50
2023-02-27T19:34:53.294Z,2.50
2023-02-27T19:37:22.710Z,2.50
2023-02-27T19:39:52.199Z,2.50
2023-02-27T19:42:21.870Z,2.50
2023-02-27T19:44:51.435Z,2.50
2023-02-27T19:47:20.952Z,2.50
2023-02-27T19:49:50.406Z,2.50
2023-02-27T19:52:20.046Z,2.50
2023-02-27T19:54:49.476Z,2.50
2023-02-27T19:57:20.465Z,2.40
2023-02-27T19:59:50.098Z,2.40
2023-02-27T20:02:20.049Z,2.40
2023-02-27T20:04:49.601Z,2.40
2023-02-27T20:07:19.348Z,2.40
2023-02-27T20:09:48.868Z,2.40
2023-02-27T20:12:18.306Z,2.40
2023-02-27T20:14:48.056Z,2.40
2023-02-27T20:17:18.083Z,2.40
2023-02-27T20:19:47.493Z,2.30
2023-02-27T20:22:17.506Z,2.40
2023-02-27T20:24:46.914Z,2.30
2023-02-27T20:27:16.413Z,2.30
2023-02-27T20:29:47.654Z,2.40
2023-02-27T20:32:17.694Z,2.30
2023-02-27T20:34:47.882Z,2.30
2023-02-27T20:37:17.866Z,2.30
2023-02-27T20:39:47.364Z,2.30
2023-02-27T20:42:17.110Z,2.30
2023-02-27T20:44:46.622Z,2.30
2023-02-27T20:47:16.040Z,2.30
2023-02-27T20:49:45.762Z,2.40
2023-02-27T20:52:15.354Z,2.30
2023-02-27T20:54:44.783Z,2.30
2023-02-27T20:57:14.505Z,2.30
2023-02-27T20:59:44.000Z,2.30
2023-02-27T21:02:13.732Z,2.30
2023-02-27T21:04:44.309Z,2.30
2023-02-27T21:07:16.334Z,2.30
2023-02-27T21:09:47.430Z,2.40
2023-02-27T21:12:18.180Z,2.30
2023-02-27T21:14:49.563Z,2.30
2023-02-27T21:17:19.608Z,2.30
2023-02-27T21:19:49.414Z,2.30
2023-02-27T21:22:18.916Z,2.30
2023-02-27T21:24:52.030Z,2.30
2023-02-27T21:27:22.930Z,2.30
2023-02-27T21:29:52.477Z,2.30
2023-02-27T21:32:22.119Z,2.30
2023-02-27T21:34:51.585Z,2.30
2023-02-27T21:37:22.129Z,2.30
2023-02-27T21:39:53.207Z,2.30
2023-02-27T21:42:24.200Z,2.30
2023-02-27T21:44:53.692Z,2.30
2023-02-27T21:47:23.116Z,2.30
2023-02-27T21:49:53.100Z,2.30
2023-02-27T21:52:22.602Z,2.30
2023-02-27T21:54:53.773Z,2.20
2023-02-27T21:57:23.690Z,2.30
2023-02-27T21:59:53.136Z,2.30
2023-02-27T22:02:22.923Z,2.30
2023-02-27T22:04:52.405Z,2.30
2023-02-27T22:07:21.834Z,2.20
2023-02-27T22:09:52.115Z,2.30
2023-02-27T22:12:22.322Z,2.30
2023-02-27T22:14:51.824Z,2.30
2023-02-27T22:17:21.357Z,2.30
2023-02-27T22:19:50.878Z,2.30
2023-02-27T22:22:20.763Z,2.30
2023-02-27T22:24:50.223Z,2.20
2023-02-27T22:27:20.086Z,2.30
2023-02-27T22:29:49.585Z,2.20
2023-02-27T22:32:19.536Z,2.20
2023-02-27T22:34:49.805Z,2.20
2023-02-27T22:37:20.020Z,2.20
2023-02-27T22:39:49.435Z,2.20
2023-02-27T22:42:18.865Z,2.20
2023-02-27T22:44:48.395Z,2.20
2023-02-27T22:47:17.804Z,2.10
2023-02-27T22:49:47.307Z,2.20
2023-02-27T22:52:16.790Z,2.20
2023-02-27T22:54:46.974Z,2.20
2023-02-27T22:57:16.549Z,2.20
2023-02-27T22:59:45.974Z,2.20
2023-02-27T23:02:16.728Z,2.10
2023-02-27T23:04:46.309Z,2.10
2023-02-27T23:07:15.728Z,2.10
2023-02-27T23:09:45.834Z,2.00
2023-02-27T23:12:15.265Z,2.10
2023-02-27T23:14:45.671Z,2.10
2023-02-27T23:17:15.086Z,2.00
2023-02-27T23:19:46.322Z,2.00
2023-02-27T23:22:15.746Z,2.00
2023-02-27T23:24:45.241Z,2.00
2023-02-27T23:27:25.855Z,2.00
2023-02-27T23:29:45.827Z,1.90
2023-02-27T23:32:15.588Z,1.90
2023-02-27T23:34:49.645Z,1.90
2023-02-27T23:37:16.587Z,1.90
2023-02-27T23:39:46.006Z,1.90
2023-02-27T23:42:33.712Z,1.90
2023-02-27T23:45:03.140Z,1.90
2023-02-27T23:47:45.032Z,1.90
2023-02-27T23:50:14.595Z,1.90
2023-02-27T23:52:45.066Z,1.90
2023-02-27T23:55:15.171Z,1.90
2023-02-27T23:57:45.411Z,1.80
